sensor_id;sensor_type;location;lat;lon;timestamp;P1;durP1;ratioP1;P2;durP2;ratioP2
2724;SDS011;1370;52.596;13.112;2023-05-07T00:00:25;22.30;;;14.43;;
2724;SDS011;1370;52.596;13.112;2023-05-07T00:02:50;17.07;;;14.50;;
2724;SDS011;1370;52.596;13.112;2023-05-07T00:05:16;15.10;;;13.37;;
2724;SDS011;1370;52.596;13.112;2023-05-07T00:07:41;15.87;;;14.30;;
2724;SDS011;1370;52.596;13.112;2023-05-07T00:10:06;19.30;;;14.37;;
2724;SDS011;1370;52.596;13.112;2023-05-07T00:12:32;20.77;;;14.70;;
2724;SDS011;1370;52.596;13.112;2023-05-07T00:15:01;15.90;;;14.27;;
2724;SDS011;1370;52.596;13.112;2023-05-07T00:17:27;16.63;;;14.93;;
2724;SDS011;1370;52.596;13.112;2023-05-07T00:19:53;17.53;;;13.90;;
2724;SDS011;1370;52.596;13.112;2023-05-07T00:22:18;15.53;;;13.70;;
2724;SDS011;1370;52.596;13.112;2023-05-07T00:24:43;17.37;;;13.33;;
2724;SDS011;1370;52.596;13.112;2023-05-07T00:27:08;18.87;;;14.13;;
2724;SDS011;1370;52.596;13.112;2023-05-07T00:29:34;14.67;;;13.20;;
2724;SDS011;1370;52.596;13.112;2023-05-07T00:31:59;17.17;;;13.53;;
2724;SDS011;1370;52.596;13.112;2023-05-07T00:34:24;17.37;;;14.07;;
2724;SDS011;1370;52.596;13.112;2023-05-07T00:36:50;15.83;;;14.07;;
2724;SDS011;1370;52.596;13.112;2023-05-07T00:39:15;15.10;;;12.77;;
2724;SDS011;1370;52.596;13.112;2023-05-07T00:41:40;17.13;;;13.43;;
2724;SDS011;1370;52.596;13.112;2023-05-07T00:44:06;13.23;;;11.90;;
2724;SDS011;1370;52.596;13.112;2023-05-07T00:46:31;13.73;;;12.20;;
2724;SDS011;1370;52.596;13.112;2023-05-07T00:48:57;16.43;;;14.63;;
2724;SDS011;1370;52.596;13.112;2023-05-07T00:51:23;13.93;;;12.73;;
2724;SDS011;1370;52.596;13.112;2023-05-07T00:53:51;14.10;;;12.70;;
2724;SDS011;1370;52.596;13.112;2023-05-07T00:56:16;15.03;;;13.27;;
2724;SDS011;1370;52.596;13.112;2023-05-07T00:58:42;12.93;;;11.63;;
2724;SDS011;1370;52.596;13.112;2023-05-07T01:01:07;12.90;;;11.60;;
2724;SDS011;1370;52.596;13.112;2023-05-07T01:03:33;21.83;;;12.50;;
2724;SDS011;1370;52.596;13.112;2023-05-07T01:05:58;13.30;;;11.47;;
2724;SDS011;1370;52.596;13.112;2023-05-07T01:08:24;14.83;;;13.23;;
2724;SDS011;1370;52.596;13.112;2023-05-07T01:10:51;13.83;;;11.47;;
2724;SDS011;1370;52.596;13.112;2023-05-07T01:13:17;15.05;;;13.48;;
2724;SDS011;1370;52.596;13.112;2023-05-07T01:15:43;14.77;;;13.03;;
2724;SDS011;1370;52.596;13.112;2023-05-07T01:18:08;12.97;;;11.57;;
2724;SDS011;1370;52.596;13.112;2023-05-07T01:20:33;11.83;;;10.73;;
2724;SDS011;1370;52.596;13.112;2023-05-07T01:22:59;15.87;;;12.23;;
2724;SDS011;1370;52.596;13.112;2023-05-07T01:25:25;12.57;;;11.27;;
2724;SDS011;1370;52.596;13.112;2023-05-07T01:27:50;14.93;;;13.33;;
2724;SDS011;1370;52.596;13.112;2023-05-07T01:30:16;18.40;;;13.20;;
2724;SDS011;1370;52.596;13.112;2023-05-07T01:32:45;19.23;;;12.37;;
2724;SDS011;1370;52.596;13.112;2023-05-07T01:35:15;14.07;;;12.63;;
2724;SDS011;1370;52.596;13.112;2023-05-07T01:37:44;11.57;;;10.57;;
2724;SDS011;1370;52.596;13.112;2023-05-07T01:40:11;15.97;;;11.73;;
2724;SDS011;1370;52.596;13.112;2023-05-07T01:42:37;13.10;;;11.80;;
2724;SDS011;1370;52.596;13.112;2023-05-07T01:45:03;13.37;;;12.00;;
2724;SDS011;1370;52.596;13.112;2023-05-07T01:47:28;12.80;;;10.97;;
2724;SDS011;1370;52.596;13.112;2023-05-07T01:49:54;15.70;;;12.23;;
2724;SDS011;1370;52.596;13.112;2023-05-07T01:52:20;12.50;;;11.20;;
2724;SDS011;1370;52.596;13.112;2023-05-07T01:54:45;13.50;;;11.23;;
2724;SDS011;1370;52.596;13.112;2023-05-07T01:57:10;11.97;;;10.47;;
2724;SDS011;1370;52.596;13.112;2023-05-07T01:59:35;13.10;;;11.77;;
2724;SDS011;1370;52.596;13.112;2023-05-07T02:02:01;12.70;;;11.20;;
2724;SDS011;1370;52.596;13.112;2023-05-07T02:04:26;13.50;;;10.43;;
2724;SDS011;1370;52.596;13.112;2023-05-07T02:06:51;16.47;;;12.07;;
2724;SDS011;1370;52.596;13.112;2023-05-07T02:09:17;14.40;;;12.37;;
2724;SDS011;1370;52.596;13.112;2023-05-07T02:11:43;13.47;;;12.23;;
2724;SDS011;1370;52.596;13.112;2023-05-07T02:14:08;13.80;;;12.50;;
2724;SDS011;1370;52.596;13.112;2023-05-07T02:16:33;14.03;;;11.43;;
2724;SDS011;1370;52.596;13.112;2023-05-07T02:18:59;11.50;;;10.43;;
2724;SDS011;1370;52.596;13.112;2023-05-07T02:21:24;14.90;;;11.67;;
2724;SDS011;1370;52.596;13.112;2023-05-07T02:23:50;14.93;;;12.50;;
2724;SDS011;1370;52.596;13.112;2023-05-07T02:26:15;12.50;;;11.30;;
2724;SDS011;1370;52.596;13.112;2023-05-07T02:28:40;13.03;;;11.80;;
2724;SDS011;1370;52.596;13.112;2023-05-07T02:31:06;12.27;;;11.10;;
2724;SDS011;1370;52.596;13.112;2023-05-07T02:33:31;12.67;;;11.27;;
2724;SDS011;1370;52.596;13.112;2023-05-07T02:35:56;15.20;;;10.80;;
2724;SDS011;1370;52.596;13.112;2023-05-07T02:38:22;14.20;;;12.10;;
2724;SDS011;1370;52.596;13.112;2023-05-07T02:40:47;14.07;;;11.23;;
2724;SDS011;1370;52.596;13.112;2023-05-07T02:43:13;12.90;;;11.50;;
2724;SDS011;1370;52.596;13.112;2023-05-07T02:45:38;12.77;;;10.53;;
2724;SDS011;1370;52.596;13.112;2023-05-07T02:48:04;12.77;;;11.23;;
2724;SDS011;1370;52.596;13.112;2023-05-07T02:50:30;15.70;;;11.73;;
2724;SDS011;1370;52.596;13.112;2023-05-07T02:52:57;17.67;;;12.80;;
2724;SDS011;1370;52.596;13.112;2023-05-07T02:55:22;13.20;;;11.37;;
2724;SDS011;1370;52.596;13.112;2023-05-07T02:57:47;11.97;;;10.87;;
2724;SDS011;1370;52.596;13.112;2023-05-07T03:00:13;13.37;;;10.97;;
2724;SDS011;1370;52.596;13.112;2023-05-07T03:02:39;12.33;;;10.73;;
2724;SDS011;1370;52.596;13.112;2023-05-07T03:05:05;11.63;;;10.53;;
2724;SDS011;1370;52.596;13.112;2023-05-07T03:07:31;12.17;;;10.90;;
2724;SDS011;1370;52.596;13.112;2023-05-07T03:09:56;13.93;;;11.30;;
2724;SDS011;1370;52.596;13.112;2023-05-07T03:12:21;12.03;;;10.47;;
2724;SDS011;1370;52.596;13.112;2023-05-07T03:14:47;12.87;;;10.77;;
2724;SDS011;1370;52.596;13.112;2023-05-07T03:17:12;12.13;;;10.83;;
2724;SDS011;1370;52.596;13.112;2023-05-07T03:19:37;13.57;;;10.80;;
2724;SDS011;1370;52.596;13.112;2023-05-07T03:22:02;12.23;;;10.53;;
2724;SDS011;1370;52.596;13.112;2023-05-07T03:24:28;11.87;;;10.87;;
2724;SDS011;1370;52.596;13.112;2023-05-07T03:26:53;15.37;;;12.00;;
2724;SDS011;1370;52.596;13.112;2023-05-07T03:29:18;11.33;;;10.33;;
2724;SDS011;1370;52.596;13.112;2023-05-07T03:31:44;10.47;;;9.53;;
2724;SDS011;1370;52.596;13.112;2023-05-07T03:34:10;11.97;;;10.83;;
2724;SDS011;1370;52.596;13.112;2023-05-07T03:36:35;11.10;;;10.10;;
2724;SDS011;1370;52.596;13.112;2023-05-07T03:39:00;12.60;;;11.30;;
2724;SDS011;1370;52.596;13.112;2023-05-07T03:41:26;13.93;;;10.83;;
2724;SDS011;1370;52.596;13.112;2023-05-07T03:43:51;11.50;;;9.67;;
2724;SDS011;1370;52.596;13.112;2023-05-07T03:46:16;10.87;;;9.77;;
2724;SDS011;1370;52.596;13.112;2023-05-07T03:48:41;13.27;;;9.70;;
2724;SDS011;1370;52.596;13.112;2023-05-07T03:51:07;11.90;;;10.17;;
2724;SDS011;1370;52.596;13.112;2023-05-07T03:53:32;11.93;;;10.20;;
2724;SDS011;1370;52.596;13.112;2023-05-07T03:55:57;17.43;;;10.17;;
2724;SDS011;1370;52.596;13.112;2023-05-07T03:58:23;9.80;;;8.90;;
2724;SDS011;1370;52.596;13.112;2023-05-07T04:00:48;9.87;;;9.07;;
2724;SDS011;1370;52.596;13.112;2023-05-07T04:03:13;10.33;;;9.40;;
2724;SDS011;1370;52.596;13.112;2023-05-07T04:05:39;10.73;;;9.63;;
2724;SDS011;1370;52.596;13.112;2023-05-07T04:08:04;11.20;;;9.87;;
2724;SDS011;1370;52.596;13.112;2023-05-07T04:10:30;10.23;;;9.23;;
2724;SDS011;1370;52.596;13.112;2023-05-07T04:12:55;10.63;;;9.63;;
2724;SDS011;1370;52.596;13.112;2023-05-07T04:15:22;10.43;;;9.53;;
2724;SDS011;1370;52.596;13.112;2023-05-07T04:17:48;12.83;;;9.10;;
2724;SDS011;1370;52.596;13.112;2023-05-07T04:20:14;9.53;;;8.77;;
2724;SDS011;1370;52.596;13.112;2023-05-07T04:22:40;10.13;;;9.23;;
2724;SDS011;1370;52.596;13.112;2023-05-07T04:25:06;9.30;;;8.40;;
2724;SDS011;1370;52.596;13.112;2023-05-07T04:27:32;9.80;;;9.00;;
2724;SDS011;1370;52.596;13.112;2023-05-07T04:29:58;11.17;;;9.13;;
2724;SDS011;1370;52.596;13.112;2023-05-07T04:32:25;8.97;;;8.17;;
2724;SDS011;1370;52.596;13.112;2023-05-07T04:34:51;8.90;;;8.17;;
2724;SDS011;1370;52.596;13.112;2023-05-07T04:37:16;9.97;;;9.00;;
2724;SDS011;1370;52.596;13.112;2023-05-07T04:39:41;13.47;;;8.60;;
2724;SDS011;1370;52.596;13.112;2023-05-07T04:42:07;9.90;;;9.00;;
2724;SDS011;1370;52.596;13.112;2023-05-07T04:44:34;10.30;;;8.40;;
2724;SDS011;1370;52.596;13.112;2023-05-07T04:46:59;9.73;;;8.83;;
2724;SDS011;1370;52.596;13.112;2023-05-07T04:49:24;9.50;;;8.70;;
2724;SDS011;1370;52.596;13.112;2023-05-07T04:51:50;9.67;;;8.67;;
2724;SDS011;1370;52.596;13.112;2023-05-07T04:54:15;8.27;;;7.60;;
2724;SDS011;1370;52.596;13.112;2023-05-07T04:56:40;9.70;;;8.83;;
2724;SDS011;1370;52.596;13.112;2023-05-07T04:59:06;9.27;;;8.33;;
2724;SDS011;1370;52.596;13.112;2023-05-07T05:01:31;9.83;;;8.93;;
2724;SDS011;1370;52.596;13.112;2023-05-07T05:03:56;10.33;;;9.40;;
2724;SDS011;1370;52.596;13.112;2023-05-07T05:06:22;9.13;;;8.33;;
2724;SDS011;1370;52.596;13.112;2023-05-07T05:08:47;9.70;;;8.90;;
2724;SDS011;1370;52.596;13.112;2023-05-07T05:11:12;8.67;;;7.93;;
2724;SDS011;1370;52.596;13.112;2023-05-07T05:13:38;12.57;;;8.67;;
2724;SDS011;1370;52.596;13.112;2023-05-07T05:16:03;9.13;;;8.43;;
2724;SDS011;1370;52.596;13.112;2023-05-07T05:18:28;9.37;;;8.47;;
2724;SDS011;1370;52.596;13.112;2023-05-07T05:20:54;8.77;;;7.70;;
2724;SDS011;1370;52.596;13.112;2023-05-07T05:23:19;8.07;;;7.33;;
2724;SDS011;1370;52.596;13.112;2023-05-07T05:25:45;8.00;;;6.73;;
2724;SDS011;1370;52.596;13.112;2023-05-07T05:28:10;7.63;;;7.10;;
2724;SDS011;1370;52.596;13.112;2023-05-07T05:30:35;7.33;;;6.83;;
2724;SDS011;1370;52.596;13.112;2023-05-07T05:33:01;10.13;;;7.63;;
2724;SDS011;1370;52.596;13.112;2023-05-07T05:35:26;10.30;;;7.57;;
2724;SDS011;1370;52.596;13.112;2023-05-07T05:37:51;7.93;;;7.33;;
2724;SDS011;1370;52.596;13.112;2023-05-07T05:40:16;7.20;;;6.63;;
2724;SDS011;1370;52.596;13.112;2023-05-07T05:42:42;9.47;;;7.93;;
2724;SDS011;1370;52.596;13.112;2023-05-07T05:45:07;7.57;;;6.97;;
2724;SDS011;1370;52.596;13.112;2023-05-07T05:47:33;7.27;;;6.57;;
2724;SDS011;1370;52.596;13.112;2023-05-07T05:49:58;7.10;;;6.50;;
2724;SDS011;1370;52.596;13.112;2023-05-07T05:52:24;7.40;;;6.37;;
2724;SDS011;1370;52.596;13.112;2023-05-07T05:54:49;8.27;;;7.57;;
2724;SDS011;1370;52.596;13.112;2023-05-07T05:57:15;7.13;;;6.50;;
2724;SDS011;1370;52.596;13.112;2023-05-07T05:59:40;7.50;;;6.83;;
2724;SDS011;1370;52.596;13.112;2023-05-07T06:02:05;6.90;;;6.30;;
2724;SDS011;1370;52.596;13.112;2023-05-07T06:04:31;6.60;;;6.10;;
2724;SDS011;1370;52.596;13.112;2023-05-07T06:06:56;7.63;;;6.93;;
2724;SDS011;1370;52.596;13.112;2023-05-07T06:09:22;8.10;;;7.50;;
2724;SDS011;1370;52.596;13.112;2023-05-07T06:11:47;9.03;;;7.17;;
2724;SDS011;1370;52.596;13.112;2023-05-07T06:14:12;7.50;;;7.00;;
2724;SDS011;1370;52.596;13.112;2023-05-07T06:16:38;7.30;;;6.70;;
2724;SDS011;1370;52.596;13.112;2023-05-07T06:19:03;8.77;;;7.90;;
2724;SDS011;1370;52.596;13.112;2023-05-07T06:21:28;6.77;;;6.20;;
2724;SDS011;1370;52.596;13.112;2023-05-07T06:23:54;6.70;;;6.20;;
2724;SDS011;1370;52.596;13.112;2023-05-07T06:26:19;7.00;;;6.37;;
2724;SDS011;1370;52.596;13.112;2023-05-07T06:28:45;6.37;;;5.87;;
2724;SDS011;1370;52.596;13.112;2023-05-07T06:31:14;7.70;;;7.10;;
2724;SDS011;1370;52.596;13.112;2023-05-07T06:33:40;10.27;;;6.73;;
2724;SDS011;1370;52.596;13.112;2023-05-07T06:36:05;10.20;;;7.63;;
2724;SDS011;1370;52.596;13.112;2023-05-07T06:38:31;9.03;;;6.43;;
2724;SDS011;1370;52.596;13.112;2023-05-07T06:40:56;6.87;;;6.30;;
2724;SDS011;1370;52.596;13.112;2023-05-07T06:43:22;9.30;;;7.27;;
2724;SDS011;1370;52.596;13.112;2023-05-07T06:45:47;6.37;;;5.87;;
2724;SDS011;1370;52.596;13.112;2023-05-07T06:48:12;8.03;;;7.33;;
2724;SDS011;1370;52.596;13.112;2023-05-07T06:50:38;7.60;;;7.00;;
2724;SDS011;1370;52.596;13.112;2023-05-07T06:53:03;7.73;;;7.10;;
2724;SDS011;1370;52.596;13.112;2023-05-07T06:55:28;6.70;;;6.00;;
2724;SDS011;1370;52.596;13.112;2023-05-07T06:57:54;7.57;;;7.00;;
2724;SDS011;1370;52.596;13.112;2023-05-07T07:00:19;10.50;;;7.93;;
2724;SDS011;1370;52.596;13.112;2023-05-07T07:02:44;6.70;;;6.20;;
2724;SDS011;1370;52.596;13.112;2023-05-07T07:05:10;7.37;;;6.83;;
2724;SDS011;1370;52.596;13.112;2023-05-07T07:07:35;8.37;;;7.43;;
2724;SDS011;1370;52.596;13.112;2023-05-07T07:10:00;7.40;;;6.37;;
2724;SDS011;1370;52.596;13.112;2023-05-07T07:12:26;6.50;;;5.90;;
2724;SDS011;1370;52.596;13.112;2023-05-07T07:14:53;7.77;;;7.07;;
2724;SDS011;1370;52.596;13.112;2023-05-07T07:17:19;7.80;;;6.83;;
2724;SDS011;1370;52.596;13.112;2023-05-07T07:19:44;10.90;;;8.10;;
2724;SDS011;1370;52.596;13.112;2023-05-07T07:22:09;9.50;;;8.60;;
2724;SDS011;1370;52.596;13.112;2023-05-07T07:24:35;8.13;;;6.67;;
2724;SDS011;1370;52.596;13.112;2023-05-07T07:27:00;7.03;;;6.43;;
2724;SDS011;1370;52.596;13.112;2023-05-07T07:29:25;7.87;;;7.20;;
2724;SDS011;1370;52.596;13.112;2023-05-07T07:31:51;7.33;;;6.57;;
2724;SDS011;1370;52.596;13.112;2023-05-07T07:34:16;10.97;;;6.90;;
2724;SDS011;1370;52.596;13.112;2023-05-07T07:36:42;7.73;;;6.53;;
2724;SDS011;1370;52.596;13.112;2023-05-07T07:39:07;7.83;;;5.97;;
2724;SDS011;1370;52.596;13.112;2023-05-07T07:41:32;6.03;;;5.53;;
2724;SDS011;1370;52.596;13.112;2023-05-07T07:43:58;7.37;;;6.63;;
2724;SDS011;1370;52.596;13.112;2023-05-07T07:46:23;6.40;;;5.80;;
2724;SDS011;1370;52.596;13.112;2023-05-07T07:48:48;7.03;;;6.40;;
2724;SDS011;1370;52.596;13.112;2023-05-07T07:51:14;8.17;;;6.27;;
2724;SDS011;1370;52.596;13.112;2023-05-07T07:53:39;5.93;;;5.43;;
2724;SDS011;1370;52.596;13.112;2023-05-07T07:56:04;6.43;;;5.97;;
2724;SDS011;1370;52.596;13.112;2023-05-07T07:58:30;9.63;;;5.67;;
2724;SDS011;1370;52.596;13.112;2023-05-07T08:00:55;4.63;;;4.33;;
2724;SDS011;1370;52.596;13.112;2023-05-07T08:03:21;5.20;;;4.90;;
2724;SDS011;1370;52.596;13.112;2023-05-07T08:05:46;5.77;;;5.27;;
2724;SDS011;1370;52.596;13.112;2023-05-07T08:08:11;6.27;;;4.90;;
2724;SDS011;1370;52.596;13.112;2023-05-07T08:10:36;4.93;;;4.37;;
2724;SDS011;1370;52.596;13.112;2023-05-07T08:13:03;5.03;;;4.63;;
2724;SDS011;1370;52.596;13.112;2023-05-07T08:15:29;4.90;;;4.40;;
2724;SDS011;1370;52.596;13.112;2023-05-07T08:17:54;5.53;;;4.70;;
2724;SDS011;1370;52.596;13.112;2023-05-07T08:20:22;4.60;;;4.30;;
2724;SDS011;1370;52.596;13.112;2023-05-07T08:22:47;4.37;;;3.97;;
2724;SDS011;1370;52.596;13.112;2023-05-07T08:25:12;5.20;;;3.83;;
2724;SDS011;1370;52.596;13.112;2023-05-07T08:27:38;5.67;;;3.97;;
2724;SDS011;1370;52.596;13.112;2023-05-07T08:30:03;4.13;;;3.83;;
2724;SDS011;1370;52.596;13.112;2023-05-07T08:32:29;4.27;;;3.97;;
2724;SDS011;1370;52.596;13.112;2023-05-07T08:34:54;4.23;;;3.93;;
2724;SDS011;1370;52.596;13.112;2023-05-07T08:37:19;5.27;;;4.60;;
2724;SDS011;1370;52.596;13.112;2023-05-07T08:39:45;3.77;;;3.57;;
2724;SDS011;1370;52.596;13.112;2023-05-07T08:42:10;3.80;;;3.60;;
2724;SDS011;1370;52.596;13.112;2023-05-07T08:44:36;5.43;;;4.50;;
2724;SDS011;1370;52.596;13.112;2023-05-07T08:47:03;5.17;;;3.47;;
2724;SDS011;1370;52.596;13.112;2023-05-07T08:49:31;3.40;;;3.10;;
2724;SDS011;1370;52.596;13.112;2023-05-07T08:51:58;3.63;;;3.20;;
2724;SDS011;1370;52.596;13.112;2023-05-07T08:54:24;3.67;;;3.37;;
2724;SDS011;1370;52.596;13.112;2023-05-07T08:56:49;3.23;;;2.93;;
2724;SDS011;1370;52.596;13.112;2023-05-07T08:59:15;3.60;;;2.90;;
2724;SDS011;1370;52.596;13.112;2023-05-07T09:01:40;4.40;;;3.87;;
2724;SDS011;1370;52.596;13.112;2023-05-07T09:04:05;4.13;;;3.83;;
2724;SDS011;1370;52.596;13.112;2023-05-07T09:06:32;4.60;;;3.87;;
2724;SDS011;1370;52.596;13.112;2023-05-07T09:08:58;4.83;;;3.53;;
2724;SDS011;1370;52.596;13.112;2023-05-07T09:11:25;3.37;;;3.17;;
2724;SDS011;1370;52.596;13.112;2023-05-07T09:13:54;3.40;;;3.10;;
2724;SDS011;1370;52.596;13.112;2023-05-07T09:16:26;4.07;;;3.77;;
2724;SDS011;1370;52.596;13.112;2023-05-07T09:18:52;6.00;;;3.77;;
2724;SDS011;1370;52.596;13.112;2023-05-07T09:21:18;3.20;;;2.97;;
2724;SDS011;1370;52.596;13.112;2023-05-07T09:23:44;5.23;;;3.63;;
2724;SDS011;1370;52.596;13.112;2023-05-07T09:26:10;5.50;;;4.23;;
2724;SDS011;1370;52.596;13.112;2023-05-07T09:28:40;4.03;;;3.83;;
2724;SDS011;1370;52.596;13.112;2023-05-07T09:31:06;3.53;;;3.23;;
2724;SDS011;1370;52.596;13.112;2023-05-07T09:33:32;4.23;;;3.93;;
2724;SDS011;1370;52.596;13.112;2023-05-07T09:35:57;3.93;;;3.67;;
2724;SDS011;1370;52.596;13.112;2023-05-07T09:38:22;8.20;;;4.77;;
2724;SDS011;1370;52.596;13.112;2023-05-07T09:40:52;4.20;;;3.80;;
2724;SDS011;1370;52.596;13.112;2023-05-07T09:43:26;4.27;;;3.87;;
2724;SDS011;1370;52.596;13.112;2023-05-07T09:45:57;4.43;;;4.10;;
2724;SDS011;1370;52.596;13.112;2023-05-07T09:48:23;4.83;;;3.17;;
2724;SDS011;1370;52.596;13.112;2023-05-07T09:50:49;3.50;;;3.30;;
2724;SDS011;1370;52.596;13.112;2023-05-07T09:53:16;3.90;;;3.70;;
2724;SDS011;1370;52.596;13.112;2023-05-07T09:55:42;3.60;;;3.30;;
2724;SDS011;1370;52.596;13.112;2023-05-07T09:58:08;3.27;;;3.07;;
2724;SDS011;1370;52.596;13.112;2023-05-07T10:00:34;4.30;;;3.60;;
2724;SDS011;1370;52.596;13.112;2023-05-07T10:03:00;3.30;;;3.10;;
2724;SDS011;1370;52.596;13.112;2023-05-07T10:05:26;4.23;;;3.87;;
2724;SDS011;1370;52.596;13.112;2023-05-07T10:07:52;3.37;;;2.80;;
2724;SDS011;1370;52.596;13.112;2023-05-07T10:10:17;3.80;;;3.50;;
2724;SDS011;1370;52.596;13.112;2023-05-07T10:12:43;3.70;;;3.40;;
2724;SDS011;1370;52.596;13.112;2023-05-07T10:15:09;3.27;;;2.97;;
2724;SDS011;1370;52.596;13.112;2023-05-07T10:17:35;3.03;;;2.70;;
2724;SDS011;1370;52.596;13.112;2023-05-07T10:20:01;3.47;;;3.10;;
2724;SDS011;1370;52.596;13.112;2023-05-07T10:22:27;3.47;;;3.20;;
2724;SDS011;1370;52.596;13.112;2023-05-07T10:24:53;4.33;;;3.63;;
2724;SDS011;1370;52.596;13.112;2023-05-07T10:27:21;3.10;;;2.90;;
2724;SDS011;1370;52.596;13.112;2023-05-07T10:32:42;6.07;;;3.60;;
2724;SDS011;1370;52.596;13.112;2023-05-07T10:35:10;3.67;;;3.37;;
2724;SDS011;1370;52.596;13.112;2023-05-07T10:37:39;4.53;;;3.27;;
2724;SDS011;1370;52.596;13.112;2023-05-07T10:40:05;3.33;;;3.03;;
2724;SDS011;1370;52.596;13.112;2023-05-07T10:42:32;6.10;;;3.90;;
2724;SDS011;1370;52.596;13.112;2023-05-07T10:44:57;3.60;;;3.30;;
2724;SDS011;1370;52.596;13.112;2023-05-07T10:47:22;5.93;;;2.77;;
2724;SDS011;1370;52.596;13.112;2023-05-07T10:52:14;5.77;;;3.00;;
2724;SDS011;1370;52.596;13.112;2023-05-07T10:54:40;2.97;;;2.37;;
2724;SDS011;1370;52.596;13.112;2023-05-07T10:57:32;3.87;;;2.60;;
2724;SDS011;1370;52.596;13.112;2023-05-07T10:59:57;2.43;;;2.23;;
2724;SDS011;1370;52.596;13.112;2023-05-07T11:02:23;3.63;;;2.50;;
2724;SDS011;1370;52.596;13.112;2023-05-07T11:07:53;3.07;;;2.20;;
2724;SDS011;1370;52.596;13.112;2023-05-07T11:10:20;5.57;;;2.90;;
2724;SDS011;1370;52.596;13.112;2023-05-07T11:15:11;3.57;;;2.37;;
2724;SDS011;1370;52.596;13.112;2023-05-07T11:17:53;2.50;;;2.30;;
2724;SDS011;1370;52.596;13.112;2023-05-07T11:20:20;4.93;;;3.47;;
2724;SDS011;1370;52.596;13.112;2023-05-07T11:22:46;3.40;;;2.33;;
2724;SDS011;1370;52.596;13.112;2023-05-07T11:25:14;2.93;;;2.43;;
2724;SDS011;1370;52.596;13.112;2023-05-07T11:27:42;3.10;;;2.87;;
2724;SDS011;1370;52.596;13.112;2023-05-07T11:30:08;3.33;;;2.80;;
2724;SDS011;1370;52.596;13.112;2023-05-07T11:32:34;2.17;;;1.97;;
2724;SDS011;1370;52.596;13.112;2023-05-07T11:34:59;2.63;;;2.43;;
2724;SDS011;1370;52.596;13.112;2023-05-07T11:37:25;5.67;;;1.80;;
2724;SDS011;1370;52.596;13.112;2023-05-07T11:40:02;6.77;;;2.73;;
2724;SDS011;1370;52.596;13.112;2023-05-07T11:42:33;3.07;;;2.37;;
2724;SDS011;1370;52.596;13.112;2023-05-07T11:45:02;3.23;;;2.73;;
2724;SDS011;1370;52.596;13.112;2023-05-07T11:47:29;2.47;;;2.27;;
2724;SDS011;1370;52.596;13.112;2023-05-07T11:49:55;2.70;;;2.50;;
2724;SDS011;1370;52.596;13.112;2023-05-07T11:52:21;4.30;;;2.00;;
2724;SDS011;1370;52.596;13.112;2023-05-07T11:54:54;2.00;;;1.80;;
2724;SDS011;1370;52.596;13.112;2023-05-07T11:57:20;4.20;;;2.67;;
2724;SDS011;1370;52.596;13.112;2023-05-07T11:59:46;3.07;;;2.50;;
2724;SDS011;1370;52.596;13.112;2023-05-07T12:02:13;3.10;;;2.80;;
2724;SDS011;1370;52.596;13.112;2023-05-07T12:04:39;2.30;;;2.10;;
2724;SDS011;1370;52.596;13.112;2023-05-07T12:07:04;3.43;;;2.30;;
2724;SDS011;1370;52.596;13.112;2023-05-07T12:09:32;3.20;;;2.90;;
2724;SDS011;1370;52.596;13.112;2023-05-07T12:12:02;2.87;;;2.67;;
2724;SDS011;1370;52.596;13.112;2023-05-07T12:14:28;2.93;;;2.73;;
2724;SDS011;1370;52.596;13.112;2023-05-07T12:16:57;2.57;;;2.37;;
2724;SDS011;1370;52.596;13.112;2023-05-07T12:19:24;2.37;;;2.17;;
2724;SDS011;1370;52.596;13.112;2023-05-07T12:21:49;6.43;;;2.70;;
2724;SDS011;1370;52.596;13.112;2023-05-07T12:24:14;2.10;;;1.90;;
2724;SDS011;1370;52.596;13.112;2023-05-07T12:26:40;2.30;;;2.10;;
2724;SDS011;1370;52.596;13.112;2023-05-07T12:29:05;2.60;;;2.40;;
2724;SDS011;1370;52.596;13.112;2023-05-07T12:31:31;2.20;;;1.90;;
2724;SDS011;1370;52.596;13.112;2023-05-07T12:33:56;2.60;;;2.40;;
2724;SDS011;1370;52.596;13.112;2023-05-07T12:36:21;2.93;;;2.40;;
2724;SDS011;1370;52.596;13.112;2023-05-07T12:38:49;2.50;;;2.27;;
2724;SDS011;1370;52.596;13.112;2023-05-07T12:41:14;4.00;;;2.13;;
2724;SDS011;1370;52.596;13.112;2023-05-07T12:43:40;2.43;;;2.23;;
2724;SDS011;1370;52.596;13.112;2023-05-07T12:46:08;2.87;;;2.57;;
2724;SDS011;1370;52.596;13.112;2023-05-07T12:48:35;3.50;;;2.77;;
2724;SDS011;1370;52.596;13.112;2023-05-07T12:51:02;3.73;;;3.43;;
2724;SDS011;1370;52.596;13.112;2023-05-07T12:53:28;2.73;;;2.00;;
2724;SDS011;1370;52.596;13.112;2023-05-07T12:55:54;2.67;;;2.47;;
2724;SDS011;1370;52.596;13.112;2023-05-07T12:58:23;3.13;;;2.30;;
2724;SDS011;1370;52.596;13.112;2023-05-07T13:00:52;2.20;;;1.90;;
2724;SDS011;1370;52.596;13.112;2023-05-07T13:03:23;2.80;;;2.50;;
2724;SDS011;1370;52.596;13.112;2023-05-07T13:05:52;1.90;;;1.70;;
2724;SDS011;1370;52.596;13.112;2023-05-07T13:08:30;2.43;;;2.23;;
2724;SDS011;1370;52.596;13.112;2023-05-07T13:10:57;2.97;;;2.77;;
2724;SDS011;1370;52.596;13.112;2023-05-07T13:13:22;2.57;;;2.37;;
2724;SDS011;1370;52.596;13.112;2023-05-07T13:15:48;3.53;;;3.07;;
2724;SDS011;1370;52.596;13.112;2023-05-07T13:18:13;3.80;;;2.30;;
2724;SDS011;1370;52.596;13.112;2023-05-07T13:20:38;3.63;;;1.83;;
2724;SDS011;1370;52.596;13.112;2023-05-07T13:23:04;4.50;;;1.93;;
2724;SDS011;1370;52.596;13.112;2023-05-07T13:25:29;2.10;;;1.90;;
2724;SDS011;1370;52.596;13.112;2023-05-07T13:27:56;2.20;;;1.90;;
2724;SDS011;1370;52.596;13.112;2023-05-07T13:30:21;2.60;;;2.40;;
2724;SDS011;1370;52.596;13.112;2023-05-07T13:32:47;2.73;;;2.30;;
2724;SDS011;1370;52.596;13.112;2023-05-07T13:35:12;2.33;;;1.90;;
2724;SDS011;1370;52.596;13.112;2023-05-07T13:37:38;2.70;;;2.50;;
2724;SDS011;1370;52.596;13.112;2023-05-07T13:40:03;2.67;;;2.47;;
2724;SDS011;1370;52.596;13.112;2023-05-07T13:42:29;3.87;;;1.97;;
2724;SDS011;1370;52.596;13.112;2023-05-07T13:44:55;2.63;;;1.93;;
2724;SDS011;1370;52.596;13.112;2023-05-07T13:47:21;2.57;;;2.00;;
2724;SDS011;1370;52.596;13.112;2023-05-07T13:49:47;2.40;;;2.20;;
2724;SDS011;1370;52.596;13.112;2023-05-07T13:52:14;2.30;;;2.10;;
2724;SDS011;1370;52.596;13.112;2023-05-07T13:54:39;4.00;;;2.10;;
2724;SDS011;1370;52.596;13.112;2023-05-07T13:57:05;1.90;;;1.50;;
2724;SDS011;1370;52.596;13.112;2023-05-07T13:59:30;1.77;;;1.67;;
2724;SDS011;1370;52.596;13.112;2023-05-07T14:01:55;2.70;;;2.43;;
2724;SDS011;1370;52.596;13.112;2023-05-07T14:04:21;5.57;;;1.73;;
2724;SDS011;1370;52.596;13.112;2023-05-07T14:06:46;2.00;;;1.80;;
2724;SDS011;1370;52.596;13.112;2023-05-07T14:09:11;4.60;;;1.83;;
2724;SDS011;1370;52.596;13.112;2023-05-07T14:11:38;2.43;;;2.23;;
2724;SDS011;1370;52.596;13.112;2023-05-07T14:14:03;2.47;;;1.47;;
2724;SDS011;1370;52.596;13.112;2023-05-07T14:16:28;1.83;;;1.67;;
2724;SDS011;1370;52.596;13.112;2023-05-07T14:18:54;3.20;;;1.87;;
2724;SDS011;1370;52.596;13.112;2023-05-07T14:21:19;3.90;;;1.70;;
2724;SDS011;1370;52.596;13.112;2023-05-07T14:23:44;2.50;;;2.30;;
2724;SDS011;1370;52.596;13.112;2023-05-07T14:26:10;3.70;;;2.27;;
2724;SDS011;1370;52.596;13.112;2023-05-07T14:28:35;1.83;;;1.60;;
2724;SDS011;1370;52.596;13.112;2023-05-07T14:31:00;2.70;;;1.87;;
2724;SDS011;1370;52.596;13.112;2023-05-07T14:33:26;10.03;;;3.13;;
2724;SDS011;1370;52.596;13.112;2023-05-07T14:35:51;4.07;;;3.27;;
2724;SDS011;1370;52.596;13.112;2023-05-07T14:38:16;5.03;;;2.03;;
2724;SDS011;1370;52.596;13.112;2023-05-07T14:40:41;1.83;;;1.63;;
2724;SDS011;1370;52.596;13.112;2023-05-07T14:43:07;3.30;;;2.30;;
2724;SDS011;1370;52.596;13.112;2023-05-07T14:45:32;4.70;;;1.73;;
2724;SDS011;1370;52.596;13.112;2023-05-07T14:47:57;3.73;;;2.13;;
2724;SDS011;1370;52.596;13.112;2023-05-07T14:50:23;3.23;;;2.37;;
2724;SDS011;1370;52.596;13.112;2023-05-07T14:52:48;2.13;;;1.93;;
2724;SDS011;1370;52.596;13.112;2023-05-07T14:55:13;2.27;;;2.00;;